sensor_id;sensor_type;location;lat;lon;timestamp;P1;durP1;ratioP1;P2;durP2;ratioP2
72406;SDS011;60396;47.550;18.828;2024-01-07T00:05:31;18.47;;;8.57;;
72406;SDS011;60396;47.550;18.828;2024-01-07T00:08:01;14.87;;;6.78;;
72406;SDS011;60396;47.550;18.828;2024-01-07T00:13:11;16.00;;;7.45;;
72406;SDS011;60396;47.550;18.828;2024-01-07T00:15:43;14.65;;;7.47;;
72406;SDS011;60396;47.550;18.828;2024-01-07T00:18:12;17.60;;;8.00;;
72406;SDS011;60396;47.550;18.828;2024-01-07T00:20:42;17.30;;;8.40;;
72406;SDS011;60396;47.550;18.828;2024-01-07T00:23:12;18.23;;;8.07;;
72406;SDS011;60396;47.550;18.828;2024-01-07T00:28:31;17.33;;;7.97;;
72406;SDS011;60396;47.550;18.828;2024-01-07T00:31:03;15.67;;;7.37;;
72406;SDS011;60396;47.550;18.828;2024-01-07T00:36:59;15.85;;;7.95;;
72406;SDS011;60396;47.550;18.828;2024-01-07T00:43:00;15.30;;;7.68;;
72406;SDS011;60396;47.550;18.828;2024-01-07T00:48:34;15.27;;;8.00;;
72406;SDS011;60396;47.550;18.828;2024-01-07T00:51:03;15.23;;;7.82;;
72406;SDS011;60396;47.550;18.828;2024-01-07T00:53:32;15.70;;;7.72;;
72406;SDS011;60396;47.550;18.828;2024-01-07T00:56:00;15.05;;;7.82;;
72406;SDS011;60396;47.550;18.828;2024-01-07T00:58:29;16.97;;;7.50;;
72406;SDS011;60396;47.550;18.828;2024-01-07T01:01:00;18.50;;;8.43;;
72406;SDS011;60396;47.550;18.828;2024-01-07T01:03:29;18.37;;;9.13;;
72406;SDS011;60396;47.550;18.828;2024-01-07T01:06:03;14.55;;;7.12;;
72406;SDS011;60396;47.550;18.828;2024-01-07T01:08:32;16.40;;;8.43;;
72406;SDS011;60396;47.550;18.828;2024-01-07T01:11:00;17.23;;;7.87;;
72406;SDS011;60396;47.550;18.828;2024-01-07T01:13:29;17.35;;;8.25;;
72406;SDS011;60396;47.550;18.828;2024-01-07T01:16:06;14.98;;;8.23;;
72406;SDS011;60396;47.550;18.828;2024-01-07T01:18:39;16.42;;;8.05;;
72406;SDS011;60396;47.550;18.828;2024-01-07T01:21:13;16.42;;;7.75;;
72406;SDS011;60396;47.550;18.828;2024-01-07T01:23:45;17.37;;;8.77;;
72406;SDS011;60396;47.550;18.828;2024-01-07T01:26:14;16.67;;;8.13;;
72406;SDS011;60396;47.550;18.828;2024-01-07T01:28:45;16.12;;;8.10;;
72406;SDS011;60396;47.550;18.828;2024-01-07T01:31:13;14.75;;;7.72;;
72406;SDS011;60396;47.550;18.828;2024-01-07T01:33:46;13.88;;;6.95;;
72406;SDS011;60396;47.550;18.828;2024-01-07T01:36:14;12.20;;;6.67;;
72406;SDS011;60396;47.550;18.828;2024-01-07T01:38:43;14.77;;;6.18;;
72406;SDS011;60396;47.550;18.828;2024-01-07T01:41:11;12.32;;;6.05;;
72406;SDS011;60396;47.550;18.828;2024-01-07T01:43:42;12.02;;;6.18;;
72406;SDS011;60396;47.550;18.828;2024-01-07T01:46:11;11.55;;;5.97;;
72406;SDS011;60396;47.550;18.828;2024-01-07T01:48:40;11.93;;;5.83;;
72406;SDS011;60396;47.550;18.828;2024-01-07T01:51:11;11.48;;;5.43;;
72406;SDS011;60396;47.550;18.828;2024-01-07T01:53:39;12.68;;;6.43;;
72406;SDS011;60396;47.550;18.828;2024-01-07T01:56:11;11.55;;;5.68;;
72406;SDS011;60396;47.550;18.828;2024-01-07T01:58:40;10.75;;;5.87;;
72406;SDS011;60396;47.550;18.828;2024-01-07T02:01:09;10.70;;;5.40;;
72406;SDS011;60396;47.550;18.828;2024-01-07T02:03:38;11.40;;;5.78;;
72406;SDS011;60396;47.550;18.828;2024-01-07T02:06:07;11.25;;;6.20;;
72406;SDS011;60396;47.550;18.828;2024-01-07T02:08:37;13.02;;;6.20;;
72406;SDS011;60396;47.550;18.828;2024-01-07T02:11:19;10.82;;;5.55;;
72406;SDS011;60396;47.550;18.828;2024-01-07T02:13:48;10.83;;;5.53;;
72406;SDS011;60396;47.550;18.828;2024-01-07T02:16:18;13.27;;;5.72;;
72406;SDS011;60396;47.550;18.828;2024-01-07T02:18:46;11.52;;;5.65;;
72406;SDS011;60396;47.550;18.828;2024-01-07T02:21:15;12.05;;;5.25;;
72406;SDS011;60396;47.550;18.828;2024-01-07T02:23:43;10.80;;;6.00;;
72406;SDS011;60396;47.550;18.828;2024-01-07T02:26:12;9.97;;;5.20;;
72406;SDS011;60396;47.550;18.828;2024-01-07T02:28:40;11.05;;;5.25;;
72406;SDS011;60396;47.550;18.828;2024-01-07T02:31:08;10.45;;;4.82;;
72406;SDS011;60396;47.550;18.828;2024-01-07T02:33:38;9.82;;;4.75;;
72406;SDS011;60396;47.550;18.828;2024-01-07T02:36:06;9.15;;;4.35;;
72406;SDS011;60396;47.550;18.828;2024-01-07T02:38:38;9.97;;;4.33;;
72406;SDS011;60396;47.550;18.828;2024-01-07T02:41:06;8.93;;;4.10;;
72406;SDS011;60396;47.550;18.828;2024-01-07T02:43:35;8.40;;;3.65;;
72406;SDS011;60396;47.550;18.828;2024-01-07T02:46:07;8.82;;;3.83;;
72406;SDS011;60396;47.550;18.828;2024-01-07T02:48:35;8.20;;;3.45;;
72406;SDS011;60396;47.550;18.828;2024-01-07T02:51:04;7.93;;;3.33;;
72406;SDS011;60396;47.550;18.828;2024-01-07T02:53:33;6.87;;;2.87;;
72406;SDS011;60396;47.550;18.828;2024-01-07T02:56:05;7.30;;;2.95;;
72406;SDS011;60396;47.550;18.828;2024-01-07T02:58:34;7.60;;;3.00;;
72406;SDS011;60396;47.550;18.828;2024-01-07T03:03:56;7.90;;;2.97;;
72406;SDS011;60396;47.550;18.828;2024-01-07T03:06:26;7.05;;;2.78;;
72406;SDS011;60396;47.550;18.828;2024-01-07T03:08:56;8.07;;;3.17;;
72406;SDS011;60396;47.550;18.828;2024-01-07T03:11:24;8.32;;;3.92;;
72406;SDS011;60396;47.550;18.828;2024-01-07T03:13:59;7.53;;;3.20;;
72406;SDS011;60396;47.550;18.828;2024-01-07T03:16:28;7.60;;;2.67;;
72406;SDS011;60396;47.550;18.828;2024-01-07T03:18:56;8.30;;;3.35;;
72406;SDS011;60396;47.550;18.828;2024-01-07T03:21:26;8.25;;;3.35;;
72406;SDS011;60396;47.550;18.828;2024-01-07T03:23:57;8.13;;;3.40;;
72406;SDS011;60396;47.550;18.828;2024-01-07T03:26:34;8.35;;;3.47;;
72406;SDS011;60396;47.550;18.828;2024-01-07T03:29:02;7.37;;;3.10;;
72406;SDS011;60396;47.550;18.828;2024-01-07T03:31:30;7.78;;;3.10;;
72406;SDS011;60396;47.550;18.828;2024-01-07T03:33:59;7.40;;;3.08;;
72406;SDS011;60396;47.550;18.828;2024-01-07T03:36:28;7.62;;;3.03;;
72406;SDS011;60396;47.550;18.828;2024-01-07T03:38:56;6.95;;;2.70;;
72406;SDS011;60396;47.550;18.828;2024-01-07T03:41:24;7.13;;;2.93;;
72406;SDS011;60396;47.550;18.828;2024-01-07T03:43:52;6.65;;;2.92;;
72406;SDS011;60396;47.550;18.828;2024-01-07T03:46:22;7.78;;;3.05;;
72406;SDS011;60396;47.550;18.828;2024-01-07T03:48:50;6.55;;;2.35;;
72406;SDS011;60396;47.550;18.828;2024-01-07T03:51:22;5.97;;;2.08;;
72406;SDS011;60396;47.550;18.828;2024-01-07T03:53:51;7.33;;;2.50;;
72406;SDS011;60396;47.550;18.828;2024-01-07T03:56:19;6.32;;;2.35;;
72406;SDS011;60396;47.550;18.828;2024-01-07T03:58:48;5.47;;;2.10;;
72406;SDS011;60396;47.550;18.828;2024-01-07T04:01:18;8.20;;;2.25;;
72406;SDS011;60396;47.550;18.828;2024-01-07T04:03:48;5.00;;;1.75;;
72406;SDS011;60396;47.550;18.828;2024-01-07T04:06:16;5.30;;;1.80;;
72406;SDS011;60396;47.550;18.828;2024-01-07T04:08:44;4.62;;;1.48;;
72406;SDS011;60396;47.550;18.828;2024-01-07T04:11:13;4.93;;;1.80;;
72406;SDS011;60396;47.550;18.828;2024-01-07T04:13:41;5.25;;;1.62;;
72406;SDS011;60396;47.550;18.828;2024-01-07T04:16:19;4.72;;;1.85;;
72406;SDS011;60396;47.550;18.828;2024-01-07T04:18:59;4.50;;;1.40;;
72406;SDS011;60396;47.550;18.828;2024-01-07T04:21:45;3.90;;;1.42;;
72406;SDS011;60396;47.550;18.828;2024-01-07T04:24:45;5.05;;;1.65;;
72406;SDS011;60396;47.550;18.828;2024-01-07T04:27:21;4.60;;;1.55;;
72406;SDS011;60396;47.550;18.828;2024-01-07T04:29:50;4.12;;;1.33;;
72406;SDS011;60396;47.550;18.828;2024-01-07T04:32:35;4.97;;;1.47;;
72406;SDS011;60396;47.550;18.828;2024-01-07T04:38:57;6.80;;;2.37;;
72406;SDS011;60396;47.550;18.828;2024-01-07T04:41:38;7.65;;;2.80;;
72406;SDS011;60396;47.550;18.828;2024-01-07T04:44:12;5.87;;;1.85;;
72406;SDS011;60396;47.550;18.828;2024-01-07T04:46:47;7.40;;;2.53;;
72406;SDS011;60396;47.550;18.828;2024-01-07T04:50:12;4.35;;;1.50;;
72406;SDS011;60396;47.550;18.828;2024-01-07T04:53:16;5.07;;;1.60;;
72406;SDS011;60396;47.550;18.828;2024-01-07T04:56:09;5.93;;;2.22;;
72406;SDS011;60396;47.550;18.828;2024-01-07T04:58:46;7.28;;;3.17;;
72406;SDS011;60396;47.550;18.828;2024-01-07T05:01:39;10.00;;;4.03;;
72406;SDS011;60396;47.550;18.828;2024-01-07T05:05:04;11.43;;;4.12;;
72406;SDS011;60396;47.550;18.828;2024-01-07T05:17:57;9.80;;;4.27;;
72406;SDS011;60396;47.550;18.828;2024-01-07T05:23:16;11.18;;;5.35;;
72406;SDS011;60396;47.550;18.828;2024-01-07T05:25:46;9.98;;;4.68;;
72406;SDS011;60396;47.550;18.828;2024-01-07T05:31:39;10.87;;;4.60;;
72406;SDS011;60396;47.550;18.828;2024-01-07T05:34:14;9.88;;;4.72;;
72406;SDS011;60396;47.550;18.828;2024-01-07T06:29:43;10.60;;;4.55;;
72406;SDS011;60396;47.550;18.828;2024-01-07T06:32:11;10.13;;;4.37;;
72406;SDS011;60396;47.550;18.828;2024-01-07T06:34:39;10.68;;;4.70;;
72406;SDS011;60396;47.550;18.828;2024-01-07T06:40:30;9.70;;;4.68;;
72406;SDS011;60396;47.550;18.828;2024-01-07T06:43:01;9.43;;;4.87;;
72406;SDS011;60396;47.550;18.828;2024-01-07T06:45:30;9.33;;;4.63;;
72406;SDS011;60396;47.550;18.828;2024-01-07T06:48:01;10.25;;;4.80;;
72406;SDS011;60396;47.550;18.828;2024-01-07T06:50:30;9.60;;;4.65;;
72406;SDS011;60396;47.550;18.828;2024-01-07T06:52:59;9.05;;;4.53;;
72406;SDS011;60396;47.550;18.828;2024-01-07T06:55:28;9.40;;;4.68;;
72406;SDS011;60396;47.550;18.828;2024-01-07T06:57:56;8.97;;;4.70;;
72406;SDS011;60396;47.550;18.828;2024-01-07T07:00:25;9.85;;;4.50;;
72406;SDS011;60396;47.550;18.828;2024-01-07T07:02:54;9.45;;;4.50;;
72406;SDS011;60396;47.550;18.828;2024-01-07T07:05:22;9.20;;;4.10;;
72406;SDS011;60396;47.550;18.828;2024-01-07T07:07:54;10.40;;;4.85;;
72406;SDS011;60396;47.550;18.828;2024-01-07T07:10:22;10.03;;;5.03;;
72406;SDS011;60396;47.550;18.828;2024-01-07T07:12:51;14.10;;;6.07;;
72406;SDS011;60396;47.550;18.828;2024-01-07T07:15:22;10.32;;;5.05;;
72406;SDS011;60396;47.550;18.828;2024-01-07T07:17:50;8.98;;;4.40;;
72406;SDS011;60396;47.550;18.828;2024-01-07T07:23:52;9.93;;;4.40;;
72406;SDS011;60396;47.550;18.828;2024-01-07T07:26:20;8.63;;;4.00;;
72406;SDS011;60396;47.550;18.828;2024-01-07T07:31:40;7.85;;;3.50;;
72406;SDS011;60396;47.550;18.828;2024-01-07T07:34:11;8.88;;;4.15;;
72406;SDS011;60396;47.550;18.828;2024-01-07T07:36:42;8.10;;;4.00;;
72406;SDS011;60396;47.550;18.828;2024-01-07T07:39:12;10.00;;;4.15;;
72406;SDS011;60396;47.550;18.828;2024-01-07T07:41:42;9.80;;;4.45;;
72406;SDS011;60396;47.550;18.828;2024-01-07T07:44:11;10.93;;;5.20;;
72406;SDS011;60396;47.550;18.828;2024-01-07T07:46:45;8.95;;;4.07;;
72406;SDS011;60396;47.550;18.828;2024-01-07T07:49:16;9.50;;;3.90;;
72406;SDS011;60396;47.550;18.828;2024-01-07T07:51:47;9.63;;;4.35;;
72406;SDS011;60396;47.550;18.828;2024-01-07T07:54:16;7.80;;;3.78;;
72406;SDS011;60396;47.550;18.828;2024-01-07T07:56:45;8.50;;;4.12;;
72406;SDS011;60396;47.550;18.828;2024-01-07T07:59:17;10.55;;;5.25;;
72406;SDS011;60396;47.550;18.828;2024-01-07T08:01:50;8.50;;;3.97;;
72406;SDS011;60396;47.550;18.828;2024-01-07T08:04:21;8.75;;;4.10;;
72406;SDS011;60396;47.550;18.828;2024-01-07T08:06:54;9.90;;;4.22;;
72406;SDS011;60396;47.550;18.828;2024-01-07T08:09:29;12.27;;;4.25;;
72406;SDS011;60396;47.550;18.828;2024-01-07T08:12:01;8.63;;;4.43;;
72406;SDS011;60396;47.550;18.828;2024-01-07T08:14:36;9.27;;;4.33;;
72406;SDS011;60396;47.550;18.828;2024-01-07T08:17:05;9.77;;;4.50;;
72406;SDS011;60396;47.550;18.828;2024-01-07T08:19:35;8.18;;;4.05;;
72406;SDS011;60396;47.550;18.828;2024-01-07T08:22:04;9.07;;;4.10;;
72406;SDS011;60396;47.550;18.828;2024-01-07T08:24:36;11.55;;;5.12;;
72406;SDS011;60396;47.550;18.828;2024-01-07T08:27:05;10.23;;;4.23;;
72406;SDS011;60396;47.550;18.828;2024-01-07T08:29:34;9.60;;;4.65;;
72406;SDS011;60396;47.550;18.828;2024-01-07T08:32:03;10.38;;;4.82;;
72406;SDS011;60396;47.550;18.828;2024-01-07T08:34:32;9.85;;;4.40;;
72406;SDS011;60396;47.550;18.828;2024-01-07T08:37:04;9.50;;;3.53;;
72406;SDS011;60396;47.550;18.828;2024-01-07T08:39:33;8.63;;;4.10;;
72406;SDS011;60396;47.550;18.828;2024-01-07T08:42:01;8.77;;;4.10;;
72406;SDS011;60396;47.550;18.828;2024-01-07T08:44:31;14.35;;;7.32;;
72406;SDS011;60396;47.550;18.828;2024-01-07T08:47:01;12.82;;;6.72;;
72406;SDS011;60396;47.550;18.828;2024-01-07T08:49:30;13.82;;;6.50;;
72406;SDS011;60396;47.550;18.828;2024-01-07T08:52:04;10.53;;;4.67;;
72406;SDS011;60396;47.550;18.828;2024-01-07T08:54:33;9.02;;;4.20;;
72406;SDS011;60396;47.550;18.828;2024-01-07T08:57:03;9.02;;;4.30;;
72406;SDS011;60396;47.550;18.828;2024-01-07T08:59:33;9.38;;;3.95;;
72406;SDS011;60396;47.550;18.828;2024-01-07T09:02:01;10.88;;;4.25;;
72406;SDS011;60396;47.550;18.828;2024-01-07T09:04:30;9.90;;;4.13;;
72406;SDS011;60396;47.550;18.828;2024-01-07T09:07:02;9.35;;;4.20;;
72406;SDS011;60396;47.550;18.828;2024-01-07T09:09:30;6.80;;;3.17;;
72406;SDS011;60396;47.550;18.828;2024-01-07T09:11:59;9.05;;;3.65;;
72406;SDS011;60396;47.550;18.828;2024-01-07T09:14:28;7.90;;;3.72;;
72406;SDS011;60396;47.550;18.828;2024-01-07T09:16:57;7.80;;;3.20;;
72406;SDS011;60396;47.550;18.828;2024-01-07T09:19:26;7.07;;;3.00;;
72406;SDS011;60396;47.550;18.828;2024-01-07T09:21:58;7.57;;;3.30;;
72406;SDS011;60396;47.550;18.828;2024-01-07T09:24:26;8.48;;;2.60;;
72406;SDS011;60396;47.550;18.828;2024-01-07T09:26:55;6.35;;;2.37;;
72406;SDS011;60396;47.550;18.828;2024-01-07T09:29:28;6.57;;;2.60;;
72406;SDS011;60396;47.550;18.828;2024-01-07T09:31:57;6.12;;;2.17;;
72406;SDS011;60396;47.550;18.828;2024-01-07T09:34:29;4.90;;;1.77;;
72406;SDS011;60396;47.550;18.828;2024-01-07T09:36:58;5.45;;;1.70;;
72406;SDS011;60396;47.550;18.828;2024-01-07T09:39:26;5.57;;;2.15;;
72406;SDS011;60396;47.550;18.828;2024-01-07T09:41:56;5.13;;;1.90;;
72406;SDS011;60396;47.550;18.828;2024-01-07T09:44:28;5.43;;;1.75;;
72406;SDS011;60396;47.550;18.828;2024-01-07T09:46:56;4.82;;;1.60;;
72406;SDS011;60396;47.550;18.828;2024-01-07T09:49:26;5.10;;;1.85;;
72406;SDS011;60396;47.550;18.828;2024-01-07T09:51:58;5.30;;;1.80;;
72406;SDS011;60396;47.550;18.828;2024-01-07T09:54:31;5.80;;;1.70;;
72406;SDS011;60396;47.550;18.828;2024-01-07T09:57:01;5.47;;;1.42;;
72406;SDS011;60396;47.550;18.828;2024-01-07T09:59:31;5.10;;;1.90;;
72406;SDS011;60396;47.550;18.828;2024-01-07T10:01:59;5.22;;;1.67;;
72406;SDS011;60396;47.550;18.828;2024-01-07T10:04:30;4.95;;;1.90;;
72406;SDS011;60396;47.550;18.828;2024-01-07T10:07:05;4.07;;;1.40;;
72406;SDS011;60396;47.550;18.828;2024-01-07T10:09:34;5.03;;;1.33;;
72406;SDS011;60396;47.550;18.828;2024-01-07T10:12:03;3.87;;;1.23;;
72406;SDS011;60396;47.550;18.828;2024-01-07T10:14:32;4.60;;;1.23;;
72406;SDS011;60396;47.550;18.828;2024-01-07T10:17:01;3.92;;;1.17;;
72406;SDS011;60396;47.550;18.828;2024-01-07T10:19:30;4.37;;;1.33;;
72406;SDS011;60396;47.550;18.828;2024-01-07T10:22:03;4.22;;;1.50;;
72406;SDS011;60396;47.550;18.828;2024-01-07T10:24:36;3.67;;;1.20;;
72406;SDS011;60396;47.550;18.828;2024-01-07T10:27:07;4.50;;;1.10;;
72406;SDS011;60396;47.550;18.828;2024-01-07T10:29:36;4.90;;;1.35;;
72406;SDS011;60396;47.550;18.828;2024-01-07T10:32:05;4.27;;;1.33;;
72406;SDS011;60396;47.550;18.828;2024-01-07T10:34:36;5.32;;;1.27;;
72406;SDS011;60396;47.550;18.828;2024-01-07T10:37:06;4.37;;;1.27;;
72406;SDS011;60396;47.550;18.828;2024-01-07T10:39:35;4.18;;;1.20;;
72406;SDS011;60396;47.550;18.828;2024-01-07T10:42:04;4.30;;;1.25;;
72406;SDS011;60396;47.550;18.828;2024-01-07T10:44:35;4.17;;;1.10;;
72406;SDS011;60396;47.550;18.828;2024-01-07T10:47:04;5.03;;;1.27;;
72406;SDS011;60396;47.550;18.828;2024-01-07T10:49:36;3.87;;;1.37;;
72406;SDS011;60396;47.550;18.828;2024-01-07T10:52:05;5.47;;;1.40;;
72406;SDS011;60396;47.550;18.828;2024-01-07T10:54:36;4.95;;;1.40;;
72406;SDS011;60396;47.550;18.828;2024-01-07T11:00:00;5.05;;;1.58;;
72406;SDS011;60396;47.550;18.828;2024-01-07T11:02:40;4.70;;;1.83;;
72406;SDS011;60396;47.550;18.828;2024-01-07T11:06:03;4.97;;;1.80;;
72406;SDS011;60396;47.550;18.828;2024-01-07T11:09:03;7.60;;;2.28;;
72406;SDS011;60396;47.550;18.828;2024-01-07T11:11:38;5.87;;;2.17;;
72406;SDS011;60396;47.550;18.828;2024-01-07T11:17:07;6.37;;;2.20;;
72406;SDS011;60396;47.550;18.828;2024-01-07T11:19:35;5.28;;;2.10;;
72406;SDS011;60396;47.550;18.828;2024-01-07T11:24:57;6.93;;;2.47;;
72406;SDS011;60396;47.550;18.828;2024-01-07T11:27:26;6.18;;;2.10;;
72406;SDS011;60396;47.550;18.828;2024-01-07T11:30:02;5.57;;;2.00;;
72406;SDS011;60396;47.550;18.828;2024-01-07T11:32:35;8.20;;;2.53;;
72406;SDS011;60396;47.550;18.828;2024-01-07T11:35:04;6.87;;;1.85;;
72406;SDS011;60396;47.550;18.828;2024-01-07T11:37:32;6.50;;;1.67;;
72406;SDS011;60396;47.550;18.828;2024-01-07T11:40:02;6.18;;;2.10;;
72406;SDS011;60396;47.550;18.828;2024-01-07T11:42:32;5.90;;;2.40;;
72406;SDS011;60396;47.550;18.828;2024-01-07T11:45:00;6.78;;;2.30;;
72406;SDS011;60396;47.550;18.828;2024-01-07T11:47:28;5.85;;;2.08;;
72406;SDS011;60396;47.550;18.828;2024-01-07T11:49:56;5.93;;;2.20;;
72406;SDS011;60396;47.550;18.828;2024-01-07T11:52:24;6.00;;;2.15;;
72406;SDS011;60396;47.550;18.828;2024-01-07T11:54:52;6.22;;;2.33;;
72406;SDS011;60396;47.550;18.828;2024-01-07T11:57:20;5.90;;;2.00;;
72406;SDS011;60396;47.550;18.828;2024-01-07T11:59:48;5.87;;;2.28;;
72406;SDS011;60396;47.550;18.828;2024-01-07T12:02:16;5.17;;;1.80;;
72406;SDS011;60396;47.550;18.828;2024-01-07T12:04:45;5.43;;;1.67;;
72406;SDS011;60396;47.550;18.828;2024-01-07T12:07:13;5.53;;;1.90;;
72406;SDS011;60396;47.550;18.828;2024-01-07T12:09:42;5.93;;;2.05;;
72406;SDS011;60396;47.550;18.828;2024-01-07T12:12:10;5.45;;;2.15;;
72406;SDS011;60396;47.550;18.828;2024-01-07T12:14:38;5.97;;;2.00;;
72406;SDS011;60396;47.550;18.828;2024-01-07T12:17:08;8.07;;;2.95;;
72406;SDS011;60396;47.550;18.828;2024-01-07T12:19:40;7.80;;;3.00;;
72406;SDS011;60396;47.550;18.828;2024-01-07T12:22:08;9.05;;;3.00;;
72406;SDS011;60396;47.550;18.828;2024-01-07T12:24:39;6.75;;;2.97;;
72406;SDS011;60396;47.550;18.828;2024-01-07T12:27:07;7.57;;;3.33;;
72406;SDS011;60396;47.550;18.828;2024-01-07T12:29:35;7.82;;;3.45;;
72406;SDS011;60396;47.550;18.828;2024-01-07T12:32:02;10.70;;;3.22;;
72406;SDS011;60396;47.550;18.828;2024-01-07T12:34:32;8.82;;;4.03;;
72406;SDS011;60396;47.550;18.828;2024-01-07T12:37:01;8.15;;;3.33;;
72406;SDS011;60396;47.550;18.828;2024-01-07T12:39:30;8.87;;;3.23;;
72406;SDS011;60396;47.550;18.828;2024-01-07T12:41:58;7.97;;;3.72;;
72406;SDS011;60396;47.550;18.828;2024-01-07T12:44:28;7.43;;;2.87;;
72406;SDS011;60396;47.550;18.828;2024-01-07T12:46:56;9.27;;;4.03;;
72406;SDS011;60396;47.550;18.828;2024-01-07T12:49:24;9.40;;;3.87;;
72406;SDS011;60396;47.550;18.828;2024-01-07T12:51:52;8.43;;;3.70;;
72406;SDS011;60396;47.550;18.828;2024-01-07T12:54:20;8.40;;;3.50;;
72406;SDS011;60396;47.550;18.828;2024-01-07T12:56:49;10.27;;;4.22;;
72406;SDS011;60396;47.550;18.828;2024-01-07T12:59:17;10.38;;;4.20;;
72406;SDS011;60396;47.550;18.828;2024-01-07T13:01:45;10.00;;;4.18;;
72406;SDS011;60396;47.550;18.828;2024-01-07T13:04:13;10.00;;;5.00;;
72406;SDS011;60396;47.550;18.828;2024-01-07T13:06:42;8.43;;;4.10;;
72406;SDS011;60396;47.550;18.828;2024-01-07T13:09:10;8.50;;;4.12;;
72406;SDS011;60396;47.550;18.828;2024-01-07T13:11:38;9.35;;;4.47;;
72406;SDS011;60396;47.550;18.828;2024-01-07T13:14:06;9.15;;;4.68;;
72406;SDS011;60396;47.550;18.828;2024-01-07T13:16:34;9.83;;;4.73;;
72406;SDS011;60396;47.550;18.828;2024-01-07T13:19:02;9.55;;;4.37;;
72406;SDS011;60396;47.550;18.828;2024-01-07T13:21:32;7.82;;;3.70;;
72406;SDS011;60396;47.550;18.828;2024-01-07T13:24:05;10.02;;;4.03;;
72406;SDS011;60396;47.550;18.828;2024-01-07T13:26:33;10.35;;;4.57;;
72406;SDS011;60396;47.550;18.828;2024-01-07T13:29:00;9.90;;;4.80;;
72406;SDS011;60396;47.550;18.828;2024-01-07T13:31:29;10.70;;;5.22;;
72406;SDS011;60396;47.550;18.828;2024-01-07T13:33:57;10.90;;;4.80;;
72406;SDS011;60396;47.550;18.828;2024-01-07T13:36:25;8.52;;;4.43;;
72406;SDS011;60396;47.550;18.828;2024-01-07T13:38:53;11.88;;;5.32;;
72406;SDS011;60396;47.550;18.828;2024-01-07T13:41:21;10.87;;;4.27;;
72406;SDS011;60396;47.550;18.828;2024-01-07T13:43:49;10.27;;;5.03;;
72406;SDS011;60396;47.550;18.828;2024-01-07T13:46:17;10.48;;;4.97;;
72406;SDS011;60396;47.550;18.828;2024-01-07T13:48:47;10.38;;;4.55;;
72406;SDS011;60396;47.550;18.828;2024-01-07T13:51:15;11.18;;;5.57;;
72406;SDS011;60396;47.550;18.828;2024-01-07T13:53:43;11.93;;;5.27;;
72406;SDS011;60396;47.550;18.828;2024-01-07T13:56:13;14.20;;;5.90;;
72406;SDS011;60396;47.550;18.828;2024-01-07T13:58:41;12.75;;;6.18;;
72406;SDS011;60396;47.550;18.828;2024-01-07T14:01:13;13.50;;;6.25;;
72406;SDS011;60396;47.550;18.828;2024-01-07T14:03:42;13.60;;;6.30;;
72406;SDS011;60396;47.550;18.828;2024-01-07T14:06:10;11.40;;;5.87;;
72406;SDS011;60396;47.550;18.828;2024-01-07T14:08:38;9.80;;;4.90;;
72406;SDS011;60396;47.550;18.828;2024-01-07T14:11:06;12.65;;;5.10;;
72406;SDS011;60396;47.550;18.828;2024-01-07T14:13:35;11.70;;;4.82;;
72406;SDS011;60396;47.550;18.828;2024-01-07T14:16:04;10.43;;;5.07;;
72406;SDS011;60396;47.550;18.828;2024-01-07T14:18:33;10.20;;;4.47;;
72406;SDS011;60396;47.550;18.828;2024-01-07T14:21:00;9.93;;;4.22;;
72406;SDS011;60396;47.550;18.828;2024-01-07T14:23:28;10.13;;;4.80;;
72406;SDS011;60396;47.550;18.828;2024-01-07T14:25:59;10.27;;;4.35;;
72406;SDS011;60396;47.550;18.828;2024-01-07T14:28:27;11.07;;;4.15;;
72406;SDS011;60396;47.550;18.828;2024-01-07T14:30:55;10.57;;;4.50;;
72406;SDS011;60396;47.550;18.828;2024-01-07T14:33:23;9.88;;;4.40;;
72406;SDS011;60396;47.550;18.828;2024-01-07T14:35:51;9.52;;;4.28;;
72406;SDS011;60396;47.550;18.828;2024-01-07T14:38:19;8.25;;;3.70;;
72406;SDS011;60396;47.550;18.828;2024-01-07T14:40:47;10.40;;;4.32;;
72406;SDS011;60396;47.550;18.828;2024-01-07T14:43:15;11.30;;;4.47;;
72406;SDS011;60396;47.550;18.828;2024-01-07T14:45:43;10.10;;;4.40;;
72406;SDS011;60396;47.550;18.828;2024-01-07T14:48:11;8.60;;;3.67;;
72406;SDS011;60396;47.550;18.828;2024-01-07T14:50:42;8.98;;;3.92;;
72406;SDS011;60396;47.550;18.828;2024-01-07T14:53:15;9.00;;;3.97;;
72406;SDS011;60396;47.550;18.828;2024-01-07T14:55:43;12.20;;;5.17;;
72406;SDS011;60396;47.550;18.828;2024-01-07T14:58:11;9.02;;;3.40;;
72406;SDS011;60396;47.550;18.828;2024-01-07T15:00:39;11.73;;;4.87;;
72406;SDS011;60396;47.550;18.828;2024-01-07T15:03:07;9.82;;;4.07;;
72406;SDS011;60396;47.550;18.828;2024-01-07T15:05:35;8.93;;;3.33;;
72406;SDS011;60396;47.550;18.828;2024-01-07T15:08:03;9.87;;;4.03;;
72406;SDS011;60396;47.550;18.828;2024-01-07T15:10:31;10.27;;;4.45;;
72406;SDS011;60396;47.550;18.828;2024-01-07T15:13:00;8.55;;;3.55;;
72406;SDS011;60396;47.550;18.828;2024-01-07T15:15:37;9.85;;;3.97;;
72406;SDS011;60396;47.550;18.828;2024-01-07T15:18:05;8.93;;;3.58;;
72406;SDS011;60396;47.550;18.828;2024-01-07T15:20:33;9.67;;;3.87;;
72406;SDS011;60396;47.550;18.828;2024-01-07T15:23:01;10.80;;;4.18;;
72406;SDS011;60396;47.550;18.828;2024-01-07T15:25:30;8.95;;;4.00;;
72406;SDS011;60396;47.550;18.828;2024-01-07T15:27:58;9.35;;;4.18;;
72406;SDS011;60396;47.550;18.828;2024-01-07T15:30:26;9.68;;;3.90;;
72406;SDS011;60396;47.550;18.828;2024-01-07T15:32:54;10.17;;;4.07;;
72406;SDS011;60396;47.550;18.828;2024-01-07T15:35:21;9.98;;;4.10;;
72406;SDS011;60396;47.550;18.828;2024-01-07T15:37:49;8.65;;;3.65;;
72406;SDS011;60396;47.550;18.828;2024-01-07T15:40:17;9.85;;;3.90;;
72406;SDS011;60396;47.550;18.828;2024-01-07T15:42:45;10.48;;;3.92;;
72406;SDS011;60396;47.550;18.828;2024-01-07T15:45:13;12.27;;;4.43;;
72406;SDS011;60396;47.550;18.828;2024-01-07T15:47:41;10.50;;;4.10;;
72406;SDS011;60396;47.550;18.828;2024-01-07T15:50:11;11.12;;;4.45;;
72406;SDS011;60396;47.550;18.828;2024-01-07T15:52:39;9.95;;;3.90;;
72406;SDS011;60396;47.550;18.828;2024-01-07T15:55:13;9.95;;;4.30;;
72406;SDS011;60396;47.550;18.828;2024-01-07T15:57:41;10.33;;;4.07;;
72406;SDS011;60396;47.550;18.828;2024-01-07T16:00:13;9.13;;;3.58;;
72406;SDS011;60396;47.550;18.828;2024-01-07T16:02:41;10.65;;;3.78;;
72406;SDS011;60396;47.550;18.828;2024-01-07T16:05:09;9.10;;;4.00;;
72406;SDS011;60396;47.550;18.828;2024-01-07T16:07:37;10.35;;;4.37;;
72406;SDS011;60396;47.550;18.828;2024-01-07T16:10:06;12.23;;;4.80;;
72406;SDS011;60396;47.550;18.828;2024-01-07T16:12:34;10.65;;;4.55;;
72406;SDS011;60396;47.550;18.828;2024-01-07T16:15:01;12.75;;;4.60;;
72406;SDS011;60396;47.550;18.828;2024-01-07T16:17:30;10.35;;;3.58;;
72406;SDS011;60396;47.550;18.828;2024-01-07T16:19:58;10.85;;;4.57;;
72406;SDS011;60396;47.550;18.828;2024-01-07T16:22:26;9.03;;;3.90;;
72406;SDS011;60396;47.550;18.828;2024-01-07T16:24:55;12.50;;;4.75;;
72406;SDS011;60396;47.550;18.828;2024-01-07T16:27:22;14.05;;;5.87;;
72406;SDS011;60396;47.550;18.828;2024-01-07T16:29:50;13.88;;;4.75;;
72406;SDS011;60396;47.550;18.828;2024-01-07T16:32:18;10.00;;;4.32;;
72406;SDS011;60396;47.550;18.828;2024-01-07T16:34:46;9.33;;;4.40;;
72406;SDS011;60396;47.550;18.828;2024-01-07T16:37:14;9.05;;;4.18;;
72406;SDS011;60396;47.550;18.828;2024-01-07T16:39:42;11.98;;;4.87;;
72406;SDS011;60396;47.550;18.828;2024-01-07T16:42:10;11.85;;;4.32;;
72406;SDS011;60396;47.550;18.828;2024-01-07T16:44:37;9.65;;;4.47;;